sensor_id;sensor_type;location;lat;lon;timestamp;P1;durP1;ratioP1;P2;durP2;ratioP2
21315;SDS011;10817;55.820;13.030;2024-02-15T00:01:06;66.95;;;22.83;;
21315;SDS011;10817;55.820;13.030;2024-02-15T00:03:33;56.28;;;21.17;;
21315;SDS011;10817;55.820;13.030;2024-02-15T00:06:01;54.30;;;20.92;;
21315;SDS011;10817;55.820;13.030;2024-02-15T00:08:29;53.88;;;21.15;;
21315;SDS011;10817;55.820;13.030;2024-02-15T00:10:58;58.38;;;21.10;;
21315;SDS011;10817;55.820;13.030;2024-02-15T00:13:25;56.30;;;21.50;;
21315;SDS011;10817;55.820;13.030;2024-02-15T00:15:52;48.72;;;19.70;;
21315;SDS011;10817;55.820;13.030;2024-02-15T00:18:18;56.28;;;21.45;;
21315;SDS011;10817;55.820;13.030;2024-02-15T00:20:46;58.20;;;21.50;;
21315;SDS011;10817;55.820;13.030;2024-02-15T00:23:13;54.50;;;20.23;;
21315;SDS011;10817;55.820;13.030;2024-02-15T00:25:42;55.65;;;20.42;;
21315;SDS011;10817;55.820;13.030;2024-02-15T00:28:10;56.25;;;19.77;;
21315;SDS011;10817;55.820;13.030;2024-02-15T00:30:37;52.83;;;21.05;;
21315;SDS011;10817;55.820;13.030;2024-02-15T00:33:04;51.85;;;21.10;;
21315;SDS011;10817;55.820;13.030;2024-02-15T00:35:32;55.78;;;20.90;;
21315;SDS011;10817;55.820;13.030;2024-02-15T00:37:59;57.15;;;20.88;;
21315;SDS011;10817;55.820;13.030;2024-02-15T00:40:26;56.28;;;19.77;;
21315;SDS011;10817;55.820;13.030;2024-02-15T00:42:54;55.63;;;19.65;;
21315;SDS011;10817;55.820;13.030;2024-02-15T00:45:21;54.67;;;18.08;;
21315;SDS011;10817;55.820;13.030;2024-02-15T00:47:48;54.72;;;19.15;;
21315;SDS011;10817;55.820;13.030;2024-02-15T00:50:15;57.40;;;20.20;;
21315;SDS011;10817;55.820;13.030;2024-02-15T00:52:42;50.58;;;18.77;;
21315;SDS011;10817;55.820;13.030;2024-02-15T00:55:09;53.70;;;18.70;;
21315;SDS011;10817;55.820;13.030;2024-02-15T00:57:36;55.78;;;19.38;;
21315;SDS011;10817;55.820;13.030;2024-02-15T01:00:05;55.13;;;18.25;;
21315;SDS011;10817;55.820;13.030;2024-02-15T01:02:34;54.92;;;19.00;;
21315;SDS011;10817;55.820;13.030;2024-02-15T01:05:03;57.47;;;19.33;;
21315;SDS011;10817;55.820;13.030;2024-02-15T01:07:35;58.40;;;19.65;;
21315;SDS011;10817;55.820;13.030;2024-02-15T01:10:08;57.33;;;18.05;;
21315;SDS011;10817;55.820;13.030;2024-02-15T01:12:38;55.35;;;18.63;;
21315;SDS011;10817;55.820;13.030;2024-02-15T01:15:10;61.17;;;21.27;;
21315;SDS011;10817;55.820;13.030;2024-02-15T01:17:37;62.78;;;21.55;;
21315;SDS011;10817;55.820;13.030;2024-02-15T01:20:04;57.40;;;19.52;;
21315;SDS011;10817;55.820;13.030;2024-02-15T01:22:32;68.38;;;22.17;;
21315;SDS011;10817;55.820;13.030;2024-02-15T01:25:00;59.22;;;20.35;;
21315;SDS011;10817;55.820;13.030;2024-02-15T01:27:27;57.20;;;20.73;;
21315;SDS011;10817;55.820;13.030;2024-02-15T01:29:55;57.72;;;19.58;;
21315;SDS011;10817;55.820;13.030;2024-02-15T01:32:23;55.05;;;18.83;;
21315;SDS011;10817;55.820;13.030;2024-02-15T01:34:50;60.78;;;19.02;;
21315;SDS011;10817;55.820;13.030;2024-02-15T01:37:19;54.97;;;20.35;;
21315;SDS011;10817;55.820;13.030;2024-02-15T01:39:46;58.38;;;19.35;;
21315;SDS011;10817;55.820;13.030;2024-02-15T01:42:13;59.80;;;20.02;;
21315;SDS011;10817;55.820;13.030;2024-02-15T01:44:40;53.42;;;19.27;;
21315;SDS011;10817;55.820;13.030;2024-02-15T01:47:09;59.53;;;19.38;;
21315;SDS011;10817;55.820;13.030;2024-02-15T01:49:38;49.80;;;18.67;;
21315;SDS011;10817;55.820;13.030;2024-02-15T01:52:06;57.70;;;19.42;;
21315;SDS011;10817;55.820;13.030;2024-02-15T01:54:35;51.72;;;19.92;;
21315;SDS011;10817;55.820;13.030;2024-02-15T01:57:04;48.38;;;18.15;;
21315;SDS011;10817;55.820;13.030;2024-02-15T01:59:31;46.65;;;17.65;;
21315;SDS011;10817;55.820;13.030;2024-02-15T02:01:58;49.65;;;18.70;;
21315;SDS011;10817;55.820;13.030;2024-02-15T02:04:24;46.65;;;17.55;;
21315;SDS011;10817;55.820;13.030;2024-02-15T02:06:53;54.72;;;19.20;;
21315;SDS011;10817;55.820;13.030;2024-02-15T02:09:23;58.35;;;19.42;;
21315;SDS011;10817;55.820;13.030;2024-02-15T02:11:51;61.15;;;21.35;;
21315;SDS011;10817;55.820;13.030;2024-02-15T02:14:18;50.35;;;19.10;;
21315;SDS011;10817;55.820;13.030;2024-02-15T02:16:45;56.08;;;18.85;;
21315;SDS011;10817;55.820;13.030;2024-02-15T02:19:12;55.22;;;20.52;;
21315;SDS011;10817;55.820;13.030;2024-02-15T02:21:39;62.78;;;20.38;;
21315;SDS011;10817;55.820;13.030;2024-02-15T02:24:10;57.42;;;19.42;;
21315;SDS011;10817;55.820;13.030;2024-02-15T02:26:41;52.88;;;18.00;;
21315;SDS011;10817;55.820;13.030;2024-02-15T02:29:08;62.33;;;19.75;;
21315;SDS011;10817;55.820;13.030;2024-02-15T02:31:35;51.60;;;18.65;;
21315;SDS011;10817;55.820;13.030;2024-02-15T02:34:03;61.85;;;19.08;;
21315;SDS011;10817;55.820;13.030;2024-02-15T02:36:31;60.90;;;18.95;;
21315;SDS011;10817;55.820;13.030;2024-02-15T02:38:58;64.45;;;18.23;;
21315;SDS011;10817;55.820;13.030;2024-02-15T02:41:26;56.33;;;18.48;;
21315;SDS011;10817;55.820;13.030;2024-02-15T02:43:54;49.50;;;18.00;;
21315;SDS011;10817;55.820;13.030;2024-02-15T02:46:22;52.55;;;17.55;;
21315;SDS011;10817;55.820;13.030;2024-02-15T02:48:56;56.42;;;17.52;;
21315;SDS011;10817;55.820;13.030;2024-02-15T02:51:25;58.38;;;17.08;;
21315;SDS011;10817;55.820;13.030;2024-02-15T02:53:52;62.13;;;17.02;;
21315;SDS011;10817;55.820;13.030;2024-02-15T02:56:19;52.90;;;16.98;;
21315;SDS011;10817;55.820;13.030;2024-02-15T02:58:45;57.35;;;18.35;;
21315;SDS011;10817;55.820;13.030;2024-02-15T03:01:14;56.92;;;18.30;;
21315;SDS011;10817;55.820;13.030;2024-02-15T03:03:42;53.45;;;18.02;;
21315;SDS011;10817;55.820;13.030;2024-02-15T03:06:09;56.55;;;17.30;;
21315;SDS011;10817;55.820;13.030;2024-02-15T03:08:36;59.05;;;16.88;;
21315;SDS011;10817;55.820;13.030;2024-02-15T03:11:03;59.75;;;19.55;;
21315;SDS011;10817;55.820;13.030;2024-02-15T03:13:30;66.43;;;17.58;;
21315;SDS011;10817;55.820;13.030;2024-02-15T03:15:57;55.78;;;17.52;;
21315;SDS011;10817;55.820;13.030;2024-02-15T03:18:25;59.97;;;18.88;;
21315;SDS011;10817;55.820;13.030;2024-02-15T03:20:52;59.97;;;18.05;;
21315;SDS011;10817;55.820;13.030;2024-02-15T03:23:19;54.95;;;18.35;;
21315;SDS011;10817;55.820;13.030;2024-02-15T03:25:46;57.90;;;17.15;;
21315;SDS011;10817;55.820;13.030;2024-02-15T03:28:14;52.10;;;17.60;;
21315;SDS011;10817;55.820;13.030;2024-02-15T03:30:41;48.90;;;18.05;;
21315;SDS011;10817;55.820;13.030;2024-02-15T03:33:09;55.83;;;18.55;;
21315;SDS011;10817;55.820;13.030;2024-02-15T03:35:37;51.65;;;18.23;;
21315;SDS011;10817;55.820;13.030;2024-02-15T03:38:05;55.17;;;17.88;;
21315;SDS011;10817;55.820;13.030;2024-02-15T03:40:32;57.85;;;18.52;;
21315;SDS011;10817;55.820;13.030;2024-02-15T03:42:59;52.03;;;16.67;;
21315;SDS011;10817;55.820;13.030;2024-02-15T03:45:26;54.08;;;16.90;;
21315;SDS011;10817;55.820;13.030;2024-02-15T03:47:53;46.90;;;16.33;;
21315;SDS011;10817;55.820;13.030;2024-02-15T03:50:21;50.13;;;17.17;;
21315;SDS011;10817;55.820;13.030;2024-02-15T03:52:49;48.85;;;17.42;;
21315;SDS011;10817;55.820;13.030;2024-02-15T03:55:16;45.83;;;16.50;;
21315;SDS011;10817;55.820;13.030;2024-02-15T03:57:46;42.45;;;15.40;;
21315;SDS011;10817;55.820;13.030;2024-02-15T04:00:23;46.15;;;16.00;;
21315;SDS011;10817;55.820;13.030;2024-02-15T04:02:54;44.65;;;15.10;;
21315;SDS011;10817;55.820;13.030;2024-02-15T04:05:27;42.55;;;16.10;;
21315;SDS011;10817;55.820;13.030;2024-02-15T04:07:55;39.58;;;15.10;;
21315;SDS011;10817;55.820;13.030;2024-02-15T04:10:22;43.28;;;15.20;;
21315;SDS011;10817;55.820;13.030;2024-02-15T04:12:49;37.67;;;14.50;;
21315;SDS011;10817;55.820;13.030;2024-02-15T04:15:16;35.10;;;14.90;;
21315;SDS011;10817;55.820;13.030;2024-02-15T04:17:43;39.67;;;15.32;;
21315;SDS011;10817;55.820;13.030;2024-02-15T04:20:10;38.20;;;15.68;;
21315;SDS011;10817;55.820;13.030;2024-02-15T04:22:39;34.30;;;14.93;;
21315;SDS011;10817;55.820;13.030;2024-02-15T04:25:10;33.50;;;14.20;;
21315;SDS011;10817;55.820;13.030;2024-02-15T04:27:41;29.38;;;13.65;;
21315;SDS011;10817;55.820;13.030;2024-02-15T04:30:09;36.17;;;15.82;;
21315;SDS011;10817;55.820;13.030;2024-02-15T04:32:36;36.92;;;14.93;;
21315;SDS011;10817;55.820;13.030;2024-02-15T04:35:03;38.33;;;15.07;;
21315;SDS011;10817;55.820;13.030;2024-02-15T04:37:31;36.08;;;14.55;;
21315;SDS011;10817;55.820;13.030;2024-02-15T04:39:59;31.92;;;14.55;;
21315;SDS011;10817;55.820;13.030;2024-02-15T04:42:34;36.83;;;15.60;;
21315;SDS011;10817;55.820;13.030;2024-02-15T04:45:04;36.53;;;14.07;;
21315;SDS011;10817;55.820;13.030;2024-02-15T04:47:33;32.05;;;14.25;;
21315;SDS011;10817;55.820;13.030;2024-02-15T04:50:00;35.33;;;14.45;;
21315;SDS011;10817;55.820;13.030;2024-02-15T04:52:27;37.40;;;15.13;;
21315;SDS011;10817;55.820;13.030;2024-02-15T04:54:54;33.25;;;15.45;;
21315;SDS011;10817;55.820;13.030;2024-02-15T04:57:23;31.45;;;14.13;;
21315;SDS011;10817;55.820;13.030;2024-02-15T04:59:52;38.58;;;15.48;;
21315;SDS011;10817;55.820;13.030;2024-02-15T05:02:19;38.28;;;15.52;;
21315;SDS011;10817;55.820;13.030;2024-02-15T05:04:47;34.22;;;14.13;;
21315;SDS011;10817;55.820;13.030;2024-02-15T05:07:14;29.63;;;14.27;;
21315;SDS011;10817;55.820;13.030;2024-02-15T05:09:42;29.17;;;13.55;;
21315;SDS011;10817;55.820;13.030;2024-02-15T05:12:09;32.42;;;13.70;;
21315;SDS011;10817;55.820;13.030;2024-02-15T05:14:36;34.65;;;14.32;;
21315;SDS011;10817;55.820;13.030;2024-02-15T05:17:04;35.58;;;14.43;;
21315;SDS011;10817;55.820;13.030;2024-02-15T05:19:35;33.80;;;14.23;;
21315;SDS011;10817;55.820;13.030;2024-02-15T05:22:02;33.30;;;14.18;;
21315;SDS011;10817;55.820;13.030;2024-02-15T05:24:31;32.22;;;14.25;;
21315;SDS011;10817;55.820;13.030;2024-02-15T05:26:57;33.67;;;14.35;;
21315;SDS011;10817;55.820;13.030;2024-02-15T05:29:24;32.53;;;14.40;;
21315;SDS011;10817;55.820;13.030;2024-02-15T05:31:52;30.90;;;13.07;;
21315;SDS011;10817;55.820;13.030;2024-02-15T05:34:21;28.05;;;12.15;;
21315;SDS011;10817;55.820;13.030;2024-02-15T05:36:51;30.92;;;12.90;;
21315;SDS011;10817;55.820;13.030;2024-02-15T05:39:18;27.67;;;12.30;;
21315;SDS011;10817;55.820;13.030;2024-02-15T05:41:47;30.77;;;13.55;;
21315;SDS011;10817;55.820;13.030;2024-02-15T05:44:14;29.30;;;13.25;;
21315;SDS011;10817;55.820;13.030;2024-02-15T05:46:44;25.88;;;13.00;;
21315;SDS011;10817;55.820;13.030;2024-02-15T05:49:11;27.85;;;12.88;;
21315;SDS011;10817;55.820;13.030;2024-02-15T05:51:42;28.58;;;12.63;;
21315;SDS011;10817;55.820;13.030;2024-02-15T05:54:10;30.40;;;13.75;;
21315;SDS011;10817;55.820;13.030;2024-02-15T05:56:37;27.17;;;12.65;;
21315;SDS011;10817;55.820;13.030;2024-02-15T05:59:04;27.83;;;13.52;;
21315;SDS011;10817;55.820;13.030;2024-02-15T06:01:44;30.42;;;13.20;;
21315;SDS011;10817;55.820;13.030;2024-02-15T06:04:13;30.35;;;13.63;;
21315;SDS011;10817;55.820;13.030;2024-02-15T06:06:45;25.13;;;12.73;;
21315;SDS011;10817;55.820;13.030;2024-02-15T06:09:13;32.03;;;13.13;;
21315;SDS011;10817;55.820;13.030;2024-02-15T06:11:47;25.77;;;13.05;;
21315;SDS011;10817;55.820;13.030;2024-02-15T06:14:16;26.45;;;12.57;;
21315;SDS011;10817;55.820;13.030;2024-02-15T06:16:57;26.95;;;12.45;;
21315;SDS011;10817;55.820;13.030;2024-02-15T06:19:24;25.27;;;12.55;;
21315;SDS011;10817;55.820;13.030;2024-02-15T06:21:53;22.08;;;11.48;;
21315;SDS011;10817;55.820;13.030;2024-02-15T06:24:22;27.20;;;12.85;;
21315;SDS011;10817;55.820;13.030;2024-02-15T06:26:50;24.70;;;13.15;;
21315;SDS011;10817;55.820;13.030;2024-02-15T06:29:24;25.70;;;12.27;;
21315;SDS011;10817;55.820;13.030;2024-02-15T06:35:12;27.33;;;12.60;;
21315;SDS011;10817;55.820;13.030;2024-02-15T06:38:00;27.77;;;12.68;;
21315;SDS011;10817;55.820;13.030;2024-02-15T06:40:45;23.85;;;12.27;;
21315;SDS011;10817;55.820;13.030;2024-02-15T06:43:12;24.33;;;11.98;;
21315;SDS011;10817;55.820;13.030;2024-02-15T06:45:40;25.65;;;12.38;;
21315;SDS011;10817;55.820;13.030;2024-02-15T06:48:11;26.17;;;11.43;;
21315;SDS011;10817;55.820;13.030;2024-02-15T06:50:38;26.73;;;12.65;;
21315;SDS011;10817;55.820;13.030;2024-02-15T06:53:07;22.13;;;12.05;;
21315;SDS011;10817;55.820;13.030;2024-02-15T06:55:37;26.55;;;12.63;;
21315;SDS011;10817;55.820;13.030;2024-02-15T06:58:05;27.20;;;12.65;;
21315;SDS011;10817;55.820;13.030;2024-02-15T07:00:32;24.98;;;13.13;;
21315;SDS011;10817;55.820;13.030;2024-02-15T07:02:59;26.08;;;12.85;;
21315;SDS011;10817;55.820;13.030;2024-02-15T07:05:26;26.13;;;13.48;;
21315;SDS011;10817;55.820;13.030;2024-02-15T07:07:53;29.38;;;13.63;;
21315;SDS011;10817;55.820;13.030;2024-02-15T07:10:23;27.25;;;13.32;;
21315;SDS011;10817;55.820;13.030;2024-02-15T07:12:51;27.25;;;14.35;;
21315;SDS011;10817;55.820;13.030;2024-02-15T07:15:19;29.45;;;13.55;;
21315;SDS011;10817;55.820;13.030;2024-02-15T07:17:46;30.35;;;13.43;;
21315;SDS011;10817;55.820;13.030;2024-02-15T07:20:16;27.80;;;13.35;;
21315;SDS011;10817;55.820;13.030;2024-02-15T07:22:47;29.48;;;13.70;;
21315;SDS011;10817;55.820;13.030;2024-02-15T07:25:47;29.15;;;12.95;;
21315;SDS011;10817;55.820;13.030;2024-02-15T07:28:18;29.65;;;13.32;;
21315;SDS011;10817;55.820;13.030;2024-02-15T07:30:46;30.13;;;13.55;;
21315;SDS011;10817;55.820;13.030;2024-02-15T07:33:29;28.30;;;14.05;;
21315;SDS011;10817;55.820;13.030;2024-02-15T07:38:55;31.73;;;13.65;;
21315;SDS011;10817;55.820;13.030;2024-02-15T07:42:20;25.15;;;13.00;;
21315;SDS011;10817;55.820;13.030;2024-02-15T07:44:50;32.63;;;14.00;;
21315;SDS011;10817;55.820;13.030;2024-02-15T07:47:17;29.45;;;13.75;;
21315;SDS011;10817;55.820;13.030;2024-02-15T07:58:28;27.92;;;13.25;;
21315;SDS011;10817;55.820;13.030;2024-02-15T08:04:53;29.48;;;14.57;;
21315;SDS011;10817;55.820;13.030;2024-02-15T08:07:31;27.17;;;13.75;;
21315;SDS011;10817;55.820;13.030;2024-02-15T08:10:02;25.58;;;14.10;;
21315;SDS011;10817;55.820;13.030;2024-02-15T08:16:01;29.10;;;14.45;;
21315;SDS011;10817;55.820;13.030;2024-02-15T08:22:59;28.73;;;13.30;;
21315;SDS011;10817;55.820;13.030;2024-02-15T08:25:28;25.83;;;14.65;;
21315;SDS011;10817;55.820;13.030;2024-02-15T08:27:56;25.83;;;14.00;;
21315;SDS011;10817;55.820;13.030;2024-02-15T08:30:41;28.30;;;14.10;;
21315;SDS011;10817;55.820;13.030;2024-02-15T08:33:09;31.27;;;15.10;;
21315;SDS011;10817;55.820;13.030;2024-02-15T08:35:46;30.70;;;15.65;;
21315;SDS011;10817;55.820;13.030;2024-02-15T08:38:20;27.55;;;14.10;;
21315;SDS011;10817;55.820;13.030;2024-02-15T08:40:56;28.75;;;14.48;;
21315;SDS011;10817;55.820;13.030;2024-02-15T08:43:32;30.40;;;15.35;;
21315;SDS011;10817;55.820;13.030;2024-02-15T08:46:07;29.65;;;14.48;;
21315;SDS011;10817;55.820;13.030;2024-02-15T08:48:42;27.60;;;14.77;;
21315;SDS011;10817;55.820;13.030;2024-02-15T08:51:10;28.40;;;14.95;;
21315;SDS011;10817;55.820;13.030;2024-02-15T08:54:26;25.83;;;13.45;;
21315;SDS011;10817;55.820;13.030;2024-02-15T08:57:11;32.55;;;15.25;;
21315;SDS011;10817;55.820;13.030;2024-02-15T09:00:16;36.25;;;15.00;;
21315;SDS011;10817;55.820;13.030;2024-02-15T09:02:51;29.90;;;14.88;;
21315;SDS011;10817;55.820;13.030;2024-02-15T09:05:21;31.90;;;14.70;;
21315;SDS011;10817;55.820;13.030;2024-02-15T09:07:51;31.88;;;14.50;;
21315;SDS011;10817;55.820;13.030;2024-02-15T09:10:19;29.67;;;14.30;;
21315;SDS011;10817;55.820;13.030;2024-02-15T09:16:33;33.03;;;15.05;;
21315;SDS011;10817;55.820;13.030;2024-02-15T09:19:02;30.45;;;14.50;;
21315;SDS011;10817;55.820;13.030;2024-02-15T09:24:20;29.02;;;14.15;;
21315;SDS011;10817;55.820;13.030;2024-02-15T09:26:50;29.02;;;14.68;;
21315;SDS011;10817;55.820;13.030;2024-02-15T09:29:18;27.48;;;13.75;;
21315;SDS011;10817;55.820;13.030;2024-02-15T09:31:47;30.42;;;14.15;;
21315;SDS011;10817;55.820;13.030;2024-02-15T09:34:14;28.88;;;13.18;;
21315;SDS011;10817;55.820;13.030;2024-02-15T09:36:41;29.48;;;13.02;;
21315;SDS011;10817;55.820;13.030;2024-02-15T09:39:10;24.33;;;13.05;;
21315;SDS011;10817;55.820;13.030;2024-02-15T09:41:39;25.63;;;12.82;;
21315;SDS011;10817;55.820;13.030;2024-02-15T09:44:07;27.02;;;12.38;;
21315;SDS011;10817;55.820;13.030;2024-02-15T09:46:42;22.88;;;11.93;;
21315;SDS011;10817;55.820;13.030;2024-02-15T09:49:15;27.75;;;12.60;;
21315;SDS011;10817;55.820;13.030;2024-02-15T09:51:42;24.15;;;12.30;;
21315;SDS011;10817;55.820;13.030;2024-02-15T09:54:12;24.80;;;12.13;;
21315;SDS011;10817;55.820;13.030;2024-02-15T09:56:47;26.08;;;12.77;;
21315;SDS011;10817;55.820;13.030;2024-02-15T09:59:15;27.15;;;11.93;;
21315;SDS011;10817;55.820;13.030;2024-02-15T10:01:43;28.08;;;12.40;;
21315;SDS011;10817;55.820;13.030;2024-02-15T10:04:14;21.98;;;12.35;;
21315;SDS011;10817;55.820;13.030;2024-02-15T10:06:42;21.20;;;12.48;;
21315;SDS011;10817;55.820;13.030;2024-02-15T10:09:26;23.90;;;12.18;;
21315;SDS011;10817;55.820;13.030;2024-02-15T10:11:54;26.55;;;12.73;;
21315;SDS011;10817;55.820;13.030;2024-02-15T10:14:22;24.23;;;12.15;;
21315;SDS011;10817;55.820;13.030;2024-02-15T10:16:49;22.40;;;13.05;;
21315;SDS011;10817;55.820;13.030;2024-02-15T10:19:17;27.17;;;12.82;;
21315;SDS011;10817;55.820;13.030;2024-02-15T10:21:45;24.85;;;12.43;;
21315;SDS011;10817;55.820;13.030;2024-02-15T10:24:12;23.77;;;11.85;;
21315;SDS011;10817;55.820;13.030;2024-02-15T10:26:40;23.90;;;12.32;;
21315;SDS011;10817;55.820;13.030;2024-02-15T10:29:08;23.58;;;12.13;;
21315;SDS011;10817;55.820;13.030;2024-02-15T10:31:36;25.08;;;12.48;;
21315;SDS011;10817;55.820;13.030;2024-02-15T10:34:05;25.92;;;12.65;;
21315;SDS011;10817;55.820;13.030;2024-02-15T10:36:32;24.40;;;12.43;;
21315;SDS011;10817;55.820;13.030;2024-02-15T10:39:12;25.52;;;11.93;;
21315;SDS011;10817;55.820;13.030;2024-02-15T10:41:44;24.63;;;12.25;;
21315;SDS011;10817;55.820;13.030;2024-02-15T10:44:13;25.52;;;12.73;;
21315;SDS011;10817;55.820;13.030;2024-02-15T10:46:46;27.70;;;12.13;;
21315;SDS011;10817;55.820;13.030;2024-02-15T10:49:21;25.77;;;12.70;;
21315;SDS011;10817;55.820;13.030;2024-02-15T10:51:55;24.23;;;12.48;;
21315;SDS011;10817;55.820;13.030;2024-02-15T10:54:27;21.83;;;11.43;;
21315;SDS011;10817;55.820;13.030;2024-02-15T10:57:09;24.02;;;12.25;;
21315;SDS011;10817;55.820;13.030;2024-02-15T10:59:38;20.13;;;11.90;;
21315;SDS011;10817;55.820;13.030;2024-02-15T11:02:11;20.35;;;11.02;;
21315;SDS011;10817;55.820;13.030;2024-02-15T11:04:51;25.48;;;12.68;;
21315;SDS011;10817;55.820;13.030;2024-02-15T11:07:22;25.23;;;12.55;;
21315;SDS011;10817;55.820;13.030;2024-02-15T11:09:51;19.80;;;11.63;;
21315;SDS011;10817;55.820;13.030;2024-02-15T11:12:20;26.50;;;12.25;;
21315;SDS011;10817;55.820;13.030;2024-02-15T11:14:48;23.52;;;12.30;;
21315;SDS011;10817;55.820;13.030;2024-02-15T11:23:24;20.02;;;9.90;;
21315;SDS011;10817;55.820;13.030;2024-02-15T11:25:55;22.90;;;10.95;;
21315;SDS011;10817;55.820;13.030;2024-02-15T11:28:38;17.08;;;9.13;;
21315;SDS011;10817;55.820;13.030;2024-02-15T11:31:14;19.02;;;10.20;;
21315;SDS011;10817;55.820;13.030;2024-02-15T11:37:10;16.40;;;9.20;;
21315;SDS011;10817;55.820;13.030;2024-02-15T11:40:16;11.75;;;8.27;;
21315;SDS011;10817;55.820;13.030;2024-02-15T11:42:44;16.35;;;9.73;;
21315;SDS011;10817;55.820;13.030;2024-02-15T11:45:15;14.32;;;8.70;;
21315;SDS011;10817;55.820;13.030;2024-02-15T11:47:43;15.48;;;9.25;;
21315;SDS011;10817;55.820;13.030;2024-02-15T11:50:15;17.08;;;9.55;;
21315;SDS011;10817;55.820;13.030;2024-02-15T11:52:43;15.57;;;8.93;;
21315;SDS011;10817;55.820;13.030;2024-02-15T11:55:12;15.23;;;8.90;;
21315;SDS011;10817;55.820;13.030;2024-02-15T11:57:39;15.57;;;9.00;;
21315;SDS011;10817;55.820;13.030;2024-02-15T12:00:23;15.02;;;8.95;;
21315;SDS011;10817;55.820;13.030;2024-02-15T12:03:08;18.88;;;9.75;;
21315;SDS011;10817;55.820;13.030;2024-02-15T12:05:53;16.10;;;8.57;;
21315;SDS011;10817;55.820;13.030;2024-02-15T12:08:38;15.32;;;8.75;;
21315;SDS011;10817;55.820;13.030;2024-02-15T12:11:22;16.40;;;8.95;;
21315;SDS011;10817;55.820;13.030;2024-02-15T12:14:06;15.85;;;9.23;;
21315;SDS011;10817;55.820;13.030;2024-02-15T12:17:00;14.00;;;8.70;;
21315;SDS011;10817;55.820;13.030;2024-02-15T12:19:47;13.10;;;8.40;;
21315;SDS011;10817;55.820;13.030;2024-02-15T12:22:15;13.45;;;7.95;;
21315;SDS011;10817;55.820;13.030;2024-02-15T12:24:45;12.80;;;7.57;;
21315;SDS011;10817;55.820;13.030;2024-02-15T12:27:20;13.25;;;8.27;;
21315;SDS011;10817;55.820;13.030;2024-02-15T12:29:52;15.20;;;9.43;;
21315;SDS011;10817;55.820;13.030;2024-02-15T12:32:22;13.30;;;8.55;;
21315;SDS011;10817;55.820;13.030;2024-02-15T12:34:49;16.58;;;8.60;;
21315;SDS011;10817;55.820;13.030;2024-02-15T12:37:17;13.05;;;8.10;;
21315;SDS011;10817;55.820;13.030;2024-02-15T12:39:46;15.23;;;8.73;;
21315;SDS011;10817;55.820;13.030;2024-02-15T12:42:14;13.25;;;8.00;;
21315;SDS011;10817;55.820;13.030;2024-02-15T12:44:43;13.27;;;7.97;;
21315;SDS011;10817;55.820;13.030;2024-02-15T12:47:17;13.25;;;8.15;;
21315;SDS011;10817;55.820;13.030;2024-02-15T12:49:46;12.32;;;7.97;;
21315;SDS011;10817;55.820;13.030;2024-02-15T12:52:34;15.38;;;9.27;;
21315;SDS011;10817;55.820;13.030;2024-02-15T12:55:09;15.30;;;8.90;;
21315;SDS011;10817;55.820;13.030;2024-02-15T12:57:41;11.82;;;7.95;;
21315;SDS011;10817;55.820;13.030;2024-02-15T13:00:11;14.02;;;8.27;;
21315;SDS011;10817;55.820;13.030;2024-02-15T13:02:43;12.35;;;7.97;;
21315;SDS011;10817;55.820;13.030;2024-02-15T13:05:12;13.07;;;7.90;;
21315;SDS011;10817;55.820;13.030;2024-02-15T13:07:39;14.02;;;7.40;;
21315;SDS011;10817;55.820;13.030;2024-02-15T13:10:06;11.73;;;7.20;;
21315;SDS011;10817;55.820;13.030;2024-02-15T13:12:34;11.73;;;7.30;;
21315;SDS011;10817;55.820;13.030;2024-02-15T13:15:02;11.38;;;7.53;;
21315;SDS011;10817;55.820;13.030;2024-02-15T13:17:31;12.02;;;7.63;;
21315;SDS011;10817;55.820;13.030;2024-02-15T13:19:58;13.65;;;8.65;;
21315;SDS011;10817;55.820;13.030;2024-02-15T13:22:31;11.20;;;7.30;;
21315;SDS011;10817;55.820;13.030;2024-02-15T13:25:03;11.82;;;7.72;;
21315;SDS011;10817;55.820;13.030;2024-02-15T13:27:32;11.77;;;8.32;;
21315;SDS011;10817;55.820;13.030;2024-02-15T13:30:00;16.80;;;8.88;;
21315;SDS011;10817;55.820;13.030;2024-02-15T13:32:26;13.60;;;8.18;;
21315;SDS011;10817;55.820;13.030;2024-02-15T13:34:54;17.30;;;9.68;;
21315;SDS011;10817;55.820;13.030;2024-02-15T13:37:22;13.52;;;8.68;;
21315;SDS011;10817;55.820;13.030;2024-02-15T13:39:50;15.75;;;9.15;;
21315;SDS011;10817;55.820;13.030;2024-02-15T13:42:17;14.95;;;9.13;;
21315;SDS011;10817;55.820;13.030;2024-02-15T13:44:44;14.32;;;8.68;;
21315;SDS011;10817;55.820;13.030;2024-02-15T13:47:12;10.75;;;7.20;;
21315;SDS011;10817;55.820;13.030;2024-02-15T13:49:41;9.25;;;6.50;;
21315;SDS011;10817;55.820;13.030;2024-02-15T13:52:08;5.90;;;5.30;;
21315;SDS011;10817;55.820;13.030;2024-02-15T13:54:36;5.97;;;3.55;;
21315;SDS011;10817;55.820;13.030;2024-02-15T13:57:07;4.45;;;3.45;;
21315;SDS011;10817;55.820;13.030;2024-02-15T13:59:35;3.67;;;3.00;;
21315;SDS011;10817;55.820;13.030;2024-02-15T14:05:05;3.95;;;3.28;;
21315;SDS011;10817;55.820;13.030;2024-02-15T14:07:33;4.20;;;3.10;;
21315;SDS011;10817;55.820;13.030;2024-02-15T14:10:01;3.88;;;2.65;;
21315;SDS011;10817;55.820;13.030;2024-02-15T14:12:29;3.90;;;2.65;;
21315;SDS011;10817;55.820;13.030;2024-02-15T14:14:56;3.13;;;2.83;;
21315;SDS011;10817;55.820;13.030;2024-02-15T14:17:23;4.25;;;3.30;;
21315;SDS011;10817;55.820;13.030;2024-02-15T14:19:50;5.43;;;3.40;;
21315;SDS011;10817;55.820;13.030;2024-02-15T14:22:17;3.65;;;3.10;;
21315;SDS011;10817;55.820;13.030;2024-02-15T14:24:44;4.75;;;2.95;;
21315;SDS011;10817;55.820;13.030;2024-02-15T14:27:11;5.63;;;3.13;;
21315;SDS011;10817;55.820;13.030;2024-02-15T14:29:41;5.22;;;3.25;;
21315;SDS011;10817;55.820;13.030;2024-02-15T14:32:30;5.10;;;3.40;;
21315;SDS011;10817;55.820;13.030;2024-02-15T14:35:11;4.05;;;3.20;;
21315;SDS011;10817;55.820;13.030;2024-02-15T14:37:42;4.05;;;3.25;;
21315;SDS011;10817;55.820;13.030;2024-02-15T14:40:09;5.40;;;3.50;;
21315;SDS011;10817;55.820;13.030;2024-02-15T14:42:41;8.60;;;3.75;;
21315;SDS011;10817;55.820;13.030;2024-02-15T14:45:24;5.32;;;3.78;;
21315;SDS011;10817;55.820;13.030;2024-02-15T14:47:51;8.52;;;3.80;;
21315;SDS011;10817;55.820;13.030;2024-02-15T14:50:32;8.80;;;3.97;;
21315;SDS011;10817;55.820;13.030;2024-02-15T14:53:12;8.10;;;4.03;;
21315;SDS011;10817;55.820;13.030;2024-02-15T14:55:48;13.02;;;4.32;;
21315;SDS011;10817;55.820;13.030;2024-02-15T14:59:00;7.22;;;4.13;;
21315;SDS011;10817;55.820;13.030;2024-02-15T15:01:28;6.97;;;4.53;;
21315;SDS011;10817;55.820;13.030;2024-02-15T15:03:55;9.00;;;4.65;;
21315;SDS011;10817;55.820;13.030;2024-02-15T15:06:23;14.60;;;4.93;;
21315;SDS011;10817;55.820;13.030;2024-02-15T15:09:08;12.25;;;5.07;;
21315;SDS011;10817;55.820;13.030;2024-02-15T15:11:57;15.15;;;4.63;;
21315;SDS011;10817;55.820;13.030;2024-02-15T15:14:41;7.13;;;4.22;;
21315;SDS011;10817;55.820;13.030;2024-02-15T15:17:11;7.65;;;4.53;;
21315;SDS011;10817;55.820;13.030;2024-02-15T15:19:39;9.07;;;5.05;;